createdAt,value
2023-04-22T00:02:17.441Z,10.60
2023-04-22T00:04:46.622Z,10.50
2023-04-22T00:07:15.586Z,10.70
2023-04-22T00:09:43.190Z,10.70
2023-04-22T00:12:13.305Z,10.80
2023-04-22T00:14:40.656Z,10.80
2023-04-22T00:17:07.664Z,10.80
2023-04-22T00:19:35.074Z,10.70
2023-04-22T00:22:02.364Z,10.70
2023-04-22T00:24:30.149Z,10.80
2023-04-22T00:26:57.110Z,10.60
2023-04-22T00:29:25.170Z,10.50
2023-04-22T00:31:52.265Z,10.30
2023-04-22T00:34:19.757Z,10.20
2023-04-22T00:36:46.714Z,10.20
2023-04-22T00:39:14.163Z,10.10
2023-04-22T00:41:41.105Z,10.30
2023-04-22T00:44:11.694Z,10.40
2023-04-22T00:46:39.591Z,10.40
2023-04-22T00:49:07.777Z,10.10
2023-04-22T00:51:35.338Z,10.00
2023-04-22T00:54:03.509Z,9.90
2023-04-22T00:56:34.013Z,9.80
2023-04-22T00:59:00.962Z,9.90
2023-04-22T01:01:28.864Z,10.10
2023-04-22T01:03:56.567Z,10.20
2023-04-22T01:06:24.904Z,10.20
2023-04-22T01:08:51.891Z,10.10
2023-04-22T01:11:19.283Z,10.10
2023-04-22T01:13:46.880Z,10.20
2023-04-22T01:16:14.329Z,10.20
2023-04-22T01:18:41.821Z,10.20
2023-04-22T01:21:08.788Z,10.10
2023-04-22T01:23:36.485Z,9.90
2023-04-22T01:26:03.624Z,9.80
2023-04-22T01:28:31.573Z,9.90
2023-04-22T01:30:58.650Z,9.90
2023-04-22T01:33:26.092Z,9.90
2023-04-22T01:35:53.446Z,9.90
2023-04-22T01:38:20.417Z,9.90
2023-04-22T01:40:47.305Z,9.90
2023-04-22T01:43:14.719Z,9.70
2023-04-22T01:45:42.426Z,9.80
2023-04-22T01:48:09.449Z,9.70
2023-04-22T01:50:36.529Z,9.70
2023-04-22T01:53:03.571Z,9.60
2023-04-22T01:55:31.230Z,9.50
2023-04-22T01:57:58.555Z,9.40
2023-04-22T02:00:25.435Z,9.40
2023-04-22T02:02:52.391Z,9.50
2023-04-22T02:05:19.434Z,9.50
2023-04-22T02:07:46.378Z,9.70
2023-04-22T02:10:13.967Z,9.70
2023-04-22T02:12:40.916Z,9.70
2023-04-22T02:15:08.443Z,9.60
2023-04-22T02:17:35.948Z,9.40
2023-04-22T02:20:04.892Z,9.40
2023-04-22T02:22:33.319Z,9.50
2023-04-22T02:25:01.326Z,9.60
2023-04-22T02:27:28.705Z,9.60
2023-04-22T02:29:56.020Z,9.40
2023-04-22T02:32:23.222Z,9.30
2023-04-22T02:34:50.815Z,9.40
2023-04-22T02:37:19.242Z,9.40
2023-04-22T02:39:46.253Z,9.30
2023-04-22T02:42:13.147Z,9.30
2023-04-22T02:44:40.059Z,9.20
2023-04-22T02:47:07.632Z,9.10
2023-04-22T02:49:34.581Z,9.20
2023-04-22T02:52:01.532Z,9.10
2023-04-22T02:54:28.465Z,9.20
2023-04-22T02:56:55.425Z,9.30
2023-04-22T02:59:22.492Z,9.20
2023-04-22T03:01:49.722Z,9.20
2023-04-22T03:04:17.234Z,9.20
2023-04-22T03:06:44.824Z,9.20
2023-04-22T03:09:12.170Z,9.20
2023-04-22T03:11:39.120Z,9.10
2023-04-22T03:14:05.996Z,9.00
2023-04-22T03:16:33.551Z,9.00
2023-04-22T03:19:00.808Z,8.90
2023-04-22T03:21:28.513Z,8.90
2023-04-22T03:23:55.391Z,8.80
2023-04-22T03:26:22.251Z,8.80
2023-04-22T03:28:49.552Z,8.80
2023-04-22T03:31:16.467Z,8.80
2023-04-22T03:33:43.777Z,8.80
2023-04-22T03:36:11.180Z,8.70
2023-04-22T03:38:38.164Z,8.70
2023-04-22T03:41:05.377Z,8.80
2023-04-22T03:43:32.674Z,8.70
2023-04-22T03:46:00.289Z,8.60
2023-04-22T03:48:29.192Z,8.60
2023-04-22T03:50:56.475Z,8.50
2023-04-22T03:53:23.739Z,8.50
2023-04-22T03:55:50.773Z,8.50
2023-04-22T03:58:17.762Z,8.50
2023-04-22T04:00:44.766Z,8.50
2023-04-22T04:03:11.865Z,8.50
2023-04-22T04:05:39.083Z,8.70
2023-04-22T04:08:06.511Z,8.80
2023-04-22T04:10:33.527Z,8.80
2023-04-22T04:13:00.335Z,8.80
2023-04-22T04:15:27.194Z,8.90
2023-04-22T04:17:56.322Z,9.00
2023-04-22T04:20:23.363Z,9.00
2023-04-22T04:22:50.958Z,9.00
2023-04-22T04:25:18.449Z,9.00
2023-04-22T04:27:45.600Z,9.00
2023-04-22T04:30:13.065Z,8.90
2023-04-22T04:32:40.484Z,9.00
2023-04-22T04:35:07.710Z,9.00
2023-04-22T04:37:34.705Z,9.20
2023-04-22T04:40:02.374Z,9.30
2023-04-22T04:42:30.608Z,9.40
2023-04-22T04:44:58.451Z,9.50
2023-04-22T04:47:25.688Z,9.60
2023-04-22T04:49:54.439Z,9.60
2023-04-22T04:52:21.403Z,9.70
2023-04-22T04:54:48.272Z,9.90
2023-04-22T04:57:15.184Z,9.90
2023-04-22T04:59:42.260Z,10.00
2023-04-22T05:02:09.462Z,10.10
2023-04-22T05:04:36.755Z,10.20
2023-04-22T05:07:04.213Z,10.30
2023-04-22T05:09:37.235Z,10.50
2023-04-22T05:12:05.164Z,10.60
2023-04-22T05:14:32.126Z,10.70
2023-04-22T05:16:59.544Z,10.80
2023-04-22T05:19:26.960Z,10.90
2023-04-22T05:21:53.928Z,11.00
2023-04-22T05:24:21.464Z,11.00
2023-04-22T05:26:48.570Z,11.10
2023-04-22T05:29:15.935Z,11.10
2023-04-22T05:32:02.318Z,11.30
2023-04-22T05:34:29.705Z,11.30
2023-04-22T05:36:56.525Z,11.50
2023-04-22T05:39:23.929Z,11.50
2023-04-22T05:41:51.318Z,11.60
2023-04-22T05:44:23.909Z,11.70
2023-04-22T05:46:51.369Z,11.80
2023-04-22T05:49:18.200Z,11.90
2023-04-22T05:51:46.481Z,12.10
2023-04-22T05:54:13.725Z,12.30
2023-04-22T05:56:40.645Z,12.30
2023-04-22T05:59:07.667Z,12.40
2023-04-22T06:01:35.992Z,12.30
2023-04-22T06:04:05.553Z,12.40
2023-04-22T06:06:33.096Z,12.40
2023-04-22T06:09:00.020Z,12.40
2023-04-22T06:11:27.158Z,12.50
2023-04-22T06:13:54.082Z,12.60
2023-04-22T06:16:21.937Z,12.70
2023-04-22T06:18:48.869Z,12.70
2023-04-22T06:21:16.272Z,12.80
2023-04-22T06:23:43.270Z,12.90
2023-04-22T06:26:10.306Z,12.90
2023-04-22T06:28:37.415Z,13.00
2023-04-22T06:31:05.158Z,13.10
2023-04-22T06:33:32.106Z,13.10
2023-04-22T06:35:59.881Z,13.10
2023-04-22T06:38:27.451Z,13.20
2023-04-22T06:40:54.397Z,13.30
2023-04-22T06:43:21.338Z,13.20
2023-04-22T06:45:48.629Z,13.10
2023-04-22T06:48:18.224Z,13.10
2023-04-22T06:50:45.109Z,13.20
2023-04-22T06:53:12.027Z,13.40
2023-04-22T06:55:42.060Z,13.60
2023-04-22T06:58:11.051Z,13.80
2023-04-22T07:00:37.924Z,14.00
2023-04-22T07:03:04.976Z,14.10
2023-04-22T07:05:32.397Z,14.30
2023-04-22T07:07:59.309Z,15.00
2023-04-22T07:10:26.706Z,14.50
2023-04-22T07:12:54.004Z,14.70
2023-04-22T07:15:20.871Z,14.80
2023-04-22T07:17:47.843Z,15.00
2023-04-22T07:20:17.744Z,15.10
2023-04-22T07:22:44.590Z,15.30
2023-04-22T07:25:11.466Z,15.50
2023-04-22T07:27:38.421Z,15.60
2023-04-22T07:30:07.701Z,15.60
2023-04-22T07:32:34.545Z,15.80
2023-04-22T07:35:01.497Z,15.80
2023-04-22T07:37:28.429Z,15.80
2023-04-22T07:39:55.324Z,15.80
2023-04-22T07:42:22.248Z,15.80
2023-04-22T07:44:49.153Z,15.90
2023-04-22T07:47:17.134Z,16.00
2023-04-22T07:49:45.482Z,16.10
2023-04-22T07:52:12.894Z,16.20
2023-04-22T07:54:40.236Z,16.30
2023-04-22T07:57:07.097Z,16.40
2023-04-22T07:59:34.543Z,16.40
2023-04-22T08:02:02.016Z,16.60
2023-04-22T08:04:29.269Z,16.80
2023-04-22T08:06:57.529Z,17.00
2023-04-22T08:09:24.695Z,17.00
2023-04-22T08:11:52.744Z,17.00
2023-04-22T08:14:19.634Z,17.10
2023-04-22T08:16:46.526Z,17.10
2023-04-22T08:19:13.452Z,17.20
2023-04-22T08:21:40.674Z,17.10
2023-04-22T08:24:07.559Z,17.20
2023-04-22T08:26:36.047Z,17.40
2023-04-22T08:29:03.532Z,17.50
2023-04-22T08:31:30.874Z,17.60
2023-04-22T08:33:58.157Z,17.80
2023-04-22T08:36:27.389Z,17.90
2023-04-22T08:38:54.942Z,18.20
2023-04-22T08:41:24.586Z,18.40
2023-04-22T08:43:52.926Z,18.40
2023-04-22T08:46:20.266Z,18.30
2023-04-22T08:48:51.365Z,18.40
2023-04-22T08:51:18.314Z,18.60
2023-04-22T08:53:45.449Z,18.70
2023-04-22T08:56:15.620Z,18.90
2023-04-22T08:58:43.550Z,19.00
2023-04-22T09:01:11.284Z,19.10
2023-04-22T09:03:41.489Z,19.10
2023-04-22T09:06:10.563Z,19.10
2023-04-22T09:08:38.600Z,19.20
2023-04-22T09:11:05.935Z,19.40
2023-04-22T09:13:34.627Z,19.50
2023-04-22T09:16:02.118Z,19.60
2023-04-22T09:18:29.161Z,19.70
2023-04-22T09:20:57.320Z,19.80
2023-04-22T09:23:24.972Z,19.80
2023-04-22T09:25:51.938Z,19.90
2023-04-22T09:28:19.762Z,20.00
2023-04-22T09:30:47.270Z,20.20
2023-04-22T09:33:14.938Z,20.30
2023-04-22T09:35:43.091Z,20.50
2023-04-22T09:38:11.968Z,20.50
2023-04-22T09:40:43.229Z,20.60
2023-04-22T09:43:10.836Z,20.70
2023-04-22T09:45:43.149Z,20.90
2023-04-22T09:48:20.302Z,21.00
2023-04-22T09:50:52.168Z,21.10
2023-04-22T09:53:21.498Z,21.20
2023-04-22T09:55:51.600Z,21.30
2023-04-22T09:58:21.416Z,21.40
2023-04-22T10:00:53.278Z,21.50
2023-04-22T10:03:21.133Z,21.70
2023-04-22T10:05:48.628Z,21.70
2023-04-22T10:08:16.957Z,21.80
2023-04-22T10:10:45.199Z,21.80
2023-04-22T10:13:12.562Z,21.60
2023-04-22T10:16:00.749Z,21.50
2023-04-22T10:18:29.953Z,21.50
2023-04-22T10:20:59.093Z,21.70
2023-04-22T10:23:26.477Z,22.00
2023-04-22T10:25:56.899Z,22.20
2023-04-22T10:28:27.912Z,22.40
2023-04-22T10:30:56.180Z,22.50
2023-04-22T10:33:24.022Z,22.70
2023-04-22T10:36:15.345Z,23.00
2023-04-22T10:39:02.107Z,23.00
2023-04-22T10:41:34.876Z,23.00
2023-04-22T10:44:06.607Z,23.10
2023-04-22T10:46:35.070Z,23.10
2023-04-22T10:49:13.094Z,23.10
2023-04-22T10:51:53.368Z,23.30
2023-04-22T10:54:32.652Z,23.70
2023-04-22T10:57:04.880Z,23.60
2023-04-22T10:59:33.389Z,23.80
2023-04-22T11:02:06.245Z,24.10
2023-04-22T11:04:34.154Z,24.40
2023-04-22T11:07:31.861Z,24.60
2023-04-22T11:10:05.474Z,25.00
2023-04-22T11:12:35.578Z,25.70
2023-04-22T11:15:08.053Z,26.20
2023-04-22T11:17:36.973Z,27.00
2023-04-22T11:20:05.635Z,27.30
2023-04-22T11:22:38.263Z,28.00
2023-04-22T11:25:06.378Z,28.00
2023-04-22T11:27:33.508Z,28.10
2023-04-22T11:30:13.574Z,28.70
2023-04-22T11:32:45.781Z,29.40
2023-04-22T11:35:21.829Z,29.70
2023-04-22T11:37:56.002Z,30.70
2023-04-22T11:42:56.451Z,31.90
2023-04-22T11:45:24.467Z,32.30
2023-04-22T11:47:52.839Z,32.40
2023-04-22T11:50:35.356Z,32.70
2023-04-22T11:53:04.813Z,32.70
2023-04-22T11:55:33.091Z,33.20
2023-04-22T11:58:10.066Z,33.60
2023-04-22T12:00:44.569Z,34.00
2023-04-22T12:03:17.073Z,34.80
2023-04-22T12:06:04.430Z,35.50
2023-04-22T12:08:44.577Z,36.00
2023-04-22T12:11:12.768Z,36.30
2023-04-22T12:13:42.428Z,37.40
2023-04-22T12:16:14.248Z,37.50
2023-04-22T12:18:54.884Z,37.80
2023-04-22T12:21:25.159Z,38.10
2023-04-22T12:23:53.992Z,38.50
2023-04-22T12:26:25.379Z,38.40
2023-04-22T12:28:54.615Z,38.80
2023-04-22T12:31:21.814Z,39.40
2023-04-22T12:33:49.611Z,39.20
2023-04-22T12:36:17.660Z,39.50
2023-04-22T12:38:44.718Z,40.30
2023-04-22T12:41:11.788Z,41.10
2023-04-22T12:43:39.532Z,41.00
2023-04-22T12:46:08.168Z,41.20
2023-04-22T12:48:38.765Z,41.60
2023-04-22T12:51:07.155Z,40.40
2023-04-22T12:53:34.380Z,41.40
2023-04-22T12:56:01.519Z,41.40
2023-04-22T12:58:28.897Z,41.40
2023-04-22T13:00:55.831Z,41.70
2023-04-22T13:03:23.327Z,42.70
2023-04-22T13:05:51.964Z,42.40
2023-04-22T13:08:18.996Z,42.20
2023-04-22T13:10:45.913Z,41.20
2023-04-22T13:15:44.124Z,40.60
2023-04-22T13:18:11.613Z,41.80
2023-04-22T13:20:39.881Z,39.70
2023-04-22T13:23:08.221Z,38.80
2023-04-22T13:25:36.219Z,38.80
2023-04-22T13:28:03.114Z,39.90
2023-04-22T13:30:30.473Z,41.40
2023-04-22T13:32:57.455Z,43.00
2023-04-22T13:35:24.920Z,43.20
2023-04-22T13:37:52.729Z,44.00
2023-04-22T13:40:19.656Z,45.30
2023-04-22T13:42:46.555Z,47.00
2023-04-22T13:45:13.617Z,47.20
2023-04-22T13:47:41.029Z,47.20
2023-04-22T13:50:08.412Z,46.70
2023-04-22T13:52:35.863Z,47.90
2023-04-22T13:55:06.111Z,48.30
2023-04-22T13:57:33.079Z,49.00
2023-04-22T14:00:00.475Z,49.40
2023-04-22T14:02:27.823Z,50.00
2023-04-22T14:04:54.801Z,50.50
2023-04-22T14:07:21.665Z,49.70
2023-04-22T14:09:48.889Z,49.60
2023-04-22T14:12:15.850Z,49.00
2023-04-22T14:14:42.961Z,49.30
2023-04-22T14:17:10.333Z,49.90
2023-04-22T14:19:39.540Z,49.40
2023-04-22T14:22:06.768Z,49.40
2023-04-22T14:24:33.897Z,49.40
2023-04-22T14:27:04.187Z,49.60
2023-04-22T14:29:31.930Z,50.20
2023-04-22T14:31:59.109Z,50.20
2023-04-22T14:34:27.308Z,50.80
2023-04-22T14:36:54.819Z,50.40
2023-04-22T14:39:21.931Z,50.30
2023-04-22T14:41:49.227Z,49.70
2023-04-22T14:44:16.157Z,49.00
2023-04-22T14:46:43.825Z,49.90
2023-04-22T14:49:10.830Z,49.10
2023-04-22T14:51:37.850Z,48.70
2023-04-22T14:54:05.237Z,49.20
2023-04-22T14:56:32.238Z,49.30
2023-04-22T14:58:59.565Z,49.50
2023-04-22T15:01:26.431Z,48.90
2023-04-22T15:03:53.735Z,49.40
2023-04-22T15:06:20.876Z,49.00
2023-04-22T15:08:47.797Z,49.10
2023-04-22T15:11:14.678Z,50.10
2023-04-22T15:13:41.973Z,49.90
2023-04-22T15:16:09.198Z,49.30
2023-04-22T15:18:36.265Z,49.10
2023-04-22T15:21:05.763Z,48.80
2023-04-22T15:23:33.144Z,48.50
2023-04-22T15:26:00.056Z,47.20
2023-04-22T15:28:27.475Z,47.00
2023-04-22T15:30:54.422Z,46.20
2023-04-22T15:33:21.421Z,46.60
2023-04-22T15:35:50.382Z,47.10
2023-04-22T15:38:17.914Z,47.40
2023-04-22T15:40:45.063Z,47.50
2023-04-22T15:43:12.822Z,47.20
2023-04-22T15:45:39.838Z,46.30
2023-04-22T15:48:06.914Z,44.50
2023-04-22T15:50:34.172Z,45.30
2023-04-22T15:53:01.168Z,45.30
2023-04-22T15:55:28.061Z,45.30
2023-04-22T15:57:55.778Z,45.40
2023-04-22T16:00:22.895Z,45.10
2023-04-22T16:02:55.780Z,45.00
2023-04-22T16:05:24.908Z,44.30
2023-04-22T16:07:53.774Z,44.10
2023-04-22T16:10:21.326Z,44.60
2023-04-22T16:12:49.819Z,44.10
2023-04-22T16:15:17.772Z,43.90
2023-04-22T16:17:44.863Z,43.10
2023-04-22T16:20:12.011Z,42.80
2023-04-22T16:22:39.101Z,42.00
2023-04-22T16:25:06.931Z,41.50
2023-04-22T16:27:33.803Z,41.70
2023-04-22T16:30:00.804Z,41.70
2023-04-22T16:32:28.107Z,41.40
2023-04-22T16:34:56.043Z,40.70
2023-04-22T16:37:23.054Z,40.40
2023-04-22T16:39:50.658Z,40.60
2023-04-22T16:42:17.803Z,40.50
2023-04-22T16:44:44.796Z,40.20
2023-04-22T16:47:12.303Z,39.20
2023-04-22T16:49:39.820Z,38.80
2023-04-22T16:52:06.844Z,38.20
2023-04-22T16:54:34.110Z,37.50
2023-04-22T16:57:02.697Z,36.40
2023-04-22T16:59:29.938Z,36.30
2023-04-22T17:01:57.414Z,36.30
2023-04-22T17:06:51.355Z,35.60
2023-04-22T17:09:18.355Z,34.70
2023-04-22T17:11:45.851Z,34.20
2023-04-22T17:14:12.938Z,33.50
2023-04-22T17:16:40.055Z,32.90
2023-04-22T17:19:07.129Z,32.50
2023-04-22T17:21:36.893Z,31.70
2023-04-22T17:24:05.728Z,31.00
2023-04-22T17:26:33.711Z,30.30
2023-04-22T17:29:01.045Z,29.20
2023-04-22T17:31:28.954Z,27.90
2023-04-22T17:33:56.374Z,26.60
2023-04-22T17:36:23.934Z,25.50
2023-04-22T17:38:50.878Z,24.80
2023-04-22T17:41:18.709Z,23.90
2023-04-22T17:43:45.758Z,23.30
2023-04-22T17:46:13.229Z,22.70
2023-04-22T17:48:41.957Z,22.20
2023-04-22T17:51:10.186Z,21.90
2023-04-22T17:53:37.579Z,21.60
2023-04-22T17:56:04.605Z,21.20
2023-04-22T17:58:31.951Z,21.00
2023-04-22T18:00:58.887Z,20.70
2023-04-22T18:03:26.509Z,20.60
2023-04-22T18:05:53.534Z,20.30
2023-04-22T18:08:20.492Z,20.20
2023-04-22T18:10:47.404Z,20.10
2023-04-22T18:13:14.472Z,19.90
2023-04-22T18:15:41.784Z,19.70
2023-04-22T18:18:08.753Z,19.50
2023-04-22T18:20:36.025Z,19.40
2023-04-22T18:23:03.196Z,19.20
2023-04-22T18:25:30.182Z,19.20
2023-04-22T18:27:57.623Z,19.20
2023-04-22T18:30:25.387Z,19.10
2023-04-22T18:32:52.698Z,18.90
2023-04-22T18:35:20.796Z,18.60
2023-04-22T18:37:48.171Z,18.50
2023-04-22T18:40:15.319Z,18.30
2023-04-22T18:42:44.849Z,18.30
2023-04-22T18:45:12.548Z,18.10
2023-04-22T18:47:39.594Z,18.00
2023-04-22T18:50:07.098Z,17.90
2023-04-22T18:52:34.145Z,17.80
2023-04-22T18:55:01.212Z,17.70
2023-04-22T18:57:28.210Z,17.60
2023-04-22T18:59:55.151Z,17.60
2023-04-22T19:02:22.377Z,17.60
2023-04-22T19:04:49.575Z,17.60
2023-04-22T19:07:16.949Z,17.60
2023-04-22T19:09:43.933Z,17.60
2023-04-22T19:12:14.726Z,17.40
2023-04-22T19:14:43.094Z,17.20
2023-04-22T19:17:10.784Z,17.10
2023-04-22T19:19:38.204Z,17.10
2023-04-22T19:22:05.591Z,17.00
2023-04-22T19:24:35.115Z,16.80
2023-04-22T19:27:02.871Z,16.70
2023-04-22T19:29:30.023Z,16.50
2023-04-22T19:31:57.348Z,16.40
2023-04-22T19:34:26.443Z,16.30
2023-04-22T19:36:54.012Z,16.20
2023-04-22T19:39:21.247Z,16.20
2023-04-22T19:41:48.202Z,16.10
2023-04-22T19:44:15.946Z,16.20
2023-04-22T19:46:42.879Z,16.10
2023-04-22T19:49:10.040Z,15.90
2023-04-22T19:51:38.717Z,15.70
2023-04-22T19:54:08.378Z,15.70
2023-04-22T19:56:35.833Z,15.70
2023-04-22T19:59:03.273Z,15.70
2023-04-22T20:01:31.021Z,15.60
2023-04-22T20:03:58.414Z,15.50
2023-04-22T20:06:25.664Z,15.40
2023-04-22T20:08:54.276Z,15.40
2023-04-22T20:11:21.944Z,15.20
2023-04-22T20:13:52.365Z,15.30
2023-04-22T20:16:20.868Z,15.40
2023-04-22T20:18:48.411Z,15.30
2023-04-22T20:21:15.686Z,15.20
2023-04-22T20:23:43.017Z,15.00
2023-04-22T20:26:10.505Z,15.00
2023-04-22T20:28:45.279Z,14.90
2023-04-22T20:31:14.003Z,15.00
2023-04-22T20:33:41.073Z,14.90
2023-04-22T20:36:08.305Z,14.80
2023-04-22T20:38:37.753Z,14.60
2023-04-22T20:41:09.249Z,14.50
2023-04-22T20:43:36.735Z,14.40
2023-04-22T20:46:03.867Z,14.30
2023-04-22T20:48:31.363Z,14.20
2023-04-22T20:50:58.748Z,14.20
2023-04-22T20:53:28.251Z,14.10
2023-04-22T20:55:56.151Z,14.00
2023-04-22T20:58:23.463Z,14.00
2023-04-22T21:00:50.703Z,13.90
2023-04-22T21:03:19.036Z,13.80
2023-04-22T21:05:46.879Z,13.80
2023-04-22T21:08:23.430Z,13.80
2023-04-22T21:10:54.002Z,13.70
2023-04-22T21:13:22.291Z,13.60
2023-04-22T21:16:01.405Z,13.60
2023-04-22T21:18:29.605Z,13.60
2023-04-22T21:21:03.374Z,13.60
2023-04-22T21:23:31.039Z,13.70
2023-04-22T21:26:02.328Z,13.80
2023-04-22T21:28:30.087Z,13.90
2023-04-22T21:31:00.482Z,13.90
2023-04-22T21:33:27.922Z,13.70
2023-04-22T21:35:54.942Z,13.60
2023-04-22T21:38:25.268Z,13.40
2023-04-22T21:40:52.234Z,13.30
2023-04-22T21:43:19.532Z,13.20
2023-04-22T21:45:46.854Z,13.10
2023-04-22T21:48:13.718Z,13.00
2023-04-22T21:50:40.821Z,13.00
2023-04-22T21:53:07.720Z,13.00
2023-04-22T21:55:34.686Z,13.00
2023-04-22T21:58:01.552Z,12.90
2023-04-22T22:00:28.482Z,12.90
2023-04-22T22:02:55.641Z,12.80
2023-04-22T22:05:23.435Z,12.80
2023-04-22T22:07:50.514Z,12.70
2023-04-22T22:10:22.534Z,12.70
2023-04-22T22:12:50.558Z,12.60
2023-04-22T22:15:17.959Z,12.60
2023-04-22T22:17:46.674Z,12.60
2023-04-22T22:20:20.392Z,12.70
2023-04-22T22:22:47.898Z,12.60
2023-04-22T22:25:16.333Z,12.50
2023-04-22T22:27:46.960Z,12.60
2023-04-22T22:30:14.814Z,12.50
2023-04-22T22:32:42.106Z,12.40
2023-04-22T22:35:10.005Z,12.40
2023-04-22T22:37:37.227Z,12.20
2023-04-22T22:40:05.453Z,12.20
2023-04-22T22:42:32.542Z,12.10
2023-04-22T22:44:59.959Z,12.00
2023-04-22T22:47:27.324Z,12.00
2023-04-22T22:49:54.331Z,12.00
2023-04-22T22:52:22.001Z,11.90
2023-04-22T22:54:50.297Z,11.90
2023-04-22T22:57:17.649Z,11.90
2023-04-22T22:59:44.659Z,11.80
2023-04-22T23:02:13.803Z,11.80
2023-04-22T23:04:41.131Z,11.70
2023-04-22T23:07:08.300Z,11.70
2023-04-22T23:09:35.425Z,11.70
2023-04-22T23:12:02.832Z,11.70
2023-04-22T23:14:30.137Z,11.70
2023-04-22T23:16:57.556Z,11.60
2023-04-22T23:19:25.713Z,11.60
2023-04-22T23:21:56.972Z,11.60
2023-04-22T23:24:24.207Z,11.60
2023-04-22T23:26:51.562Z,11.50
2023-04-22T23:29:19.627Z,11.50
2023-04-22T23:31:48.988Z,11.50
2023-04-22T23:34:19.079Z,11.50
2023-04-22T23:36:46.449Z,11.50
2023-04-22T23:39:13.666Z,11.40
2023-04-22T23:41:40.561Z,11.40
2023-04-22T23:44:07.482Z,11.40
2023-04-22T23:46:34.521Z,11.40
2023-04-22T23:49:01.963Z,11.40
2023-04-22T23:51:29.862Z,11.30
2023-04-22T23:53:56.769Z,11.30
2023-04-22T23:56:24.017Z,11.20
2023-04-22T23:58:51.328Z,11.20
